MUHAMUVR

Guest
Details From MUHA - Havana Jose Marti Intl
To MUVR - JUAN GUALBERTO GOMEZ INTL
Flight Number -
Tags generated
Created
Modified
Stats Distance 54 nm / 100 km
Max Altitude 200 ft / 61 m
Waypoints 3
Social Downloads 2
Likes 0
Share VATSIM

Download

Looking for another format? Having issues loading an existing format? Contact us
Advertisement - Login to hide

Notes

Basic altitude profile: - Ascent Rate: 2500ft/min - Ascent Speed: 250kts - Cruise Altitude: 35000ft - Cruise Speed: 420kts - Descent Rate: 1500ft/min - Descent Speed: 250kts Options: - Use NATs: yes - Use PACOTS: yes - Use low airways: yes - Use high airways: yes

Route

MUHA UVA MUVR

ID Type Via Altitude Latitude Longitude Leg Dist Tot Dist Heading (true) Name
O MUHA APT - 0 ft / 0 m 22.98915˚ -82.40909˚ - 0 nm - Havana Jose Marti Intl
UVA VOR - 200 ft / 61 m 23.02469˚ -81.45358˚ 52 nm 52 nm 87° / 88° VARDER VOR-DME
O MUVR APT - 0 ft / 0 m 23.03444˚ -81.43527˚ 1 nm 54 nm 60° / 60° JUAN GUALBERTO GOMEZ INTL

Altitude Profile

Advertisement - Login to hide

MUHA

Details ICAO MUHA (HAV)
Name Havana Jose Marti Intl
Region Cuba
Timezone America/Havana (UTC-5.0)
Stats Elevation 209 ft / 64 m (AMSL)
Location 22.989154° -82.409086°
Runways 1
Magnetic Variation 4.907° W

METAR

MUHA 120955Z 04002KT 9999 NSC 11/10 Q1019

Decode

TAF

Not found

Departure Runways

ID Width Length Bearing (true) Bearing (mag) Surface Threshold Offset Overrun Length
06 148 ft / 45 m 13,133 ft / 4,003 m 54.21° 59.12° Asphalt 0 ft / 0 m 476 ft / 145 m
24 148 ft / 45 m 13,133 ft / 4,003 m 234.23° 239.14° Asphalt 0 ft / 0 m 197 ft / 60 m

MUVR

Details ICAO MUVR (VRA)
Name JUAN GUALBERTO GOMEZ INTL
Region Cuba
Timezone America/Havana (UTC-5.0)
Stats Elevation 209 ft / 64 m (AMSL)
Location 23.034439° -81.435269°
Runways 1
Magnetic Variation 5.517° W

METAR

MUVR 120951Z VRB02KT 9000 FEW020 12/11 Q1019

Decode

TAF

Not found

Destination Runways

ID Width Length Bearing (true) Bearing (mag) Surface Threshold Offset Overrun Length
06 148 ft / 45 m 11,494 ft / 3,503 m 55.47° 60.99° Asphalt 0 ft / 0 m 197 ft / 60 m
24 148 ft / 45 m 11,494 ft / 3,503 m 235.48° 241.00° Asphalt 0 ft / 0 m 197 ft / 60 m

Approach Navaids

Runway Type Ident Frequency Range Bearing (true) Bearing (mag) Slope Elevation
06 Localiser IVR 111.30 MHz 18 nm / 33 km 55.49° 61.01° - 209 ft / 64 m (AMSL)
06 Glidescope IVR 111.30 MHz 10 nm / 19 km 55.47° 60.99° 3.00° 209 ft / 64 m (AMSL)

Popular Alternatives